createdAt,value
2017-12-19T00:01:51.552Z,46.70
2017-12-19T00:04:20.142Z,46.80
2017-12-19T00:06:48.852Z,46.90
2017-12-19T00:09:16.649Z,46.90
2017-12-19T00:11:44.428Z,46.90
2017-12-19T00:14:12.304Z,47.00
2017-12-19T00:16:40.998Z,46.90
2017-12-19T00:19:09.634Z,46.70
2017-12-19T00:21:37.513Z,46.70
2017-12-19T00:24:05.397Z,46.40
2017-12-19T00:26:33.306Z,46.40
2017-12-19T00:29:01.164Z,46.40
2017-12-19T00:31:29.856Z,46.40
2017-12-19T00:33:57.778Z,46.40
2017-12-19T00:36:25.756Z,46.50
2017-12-19T00:38:53.580Z,46.60
2017-12-19T00:41:21.451Z,46.70
2017-12-19T00:43:49.336Z,47.10
2017-12-19T00:46:17.210Z,47.60
2017-12-19T00:48:45.091Z,47.70
2017-12-19T00:51:12.922Z,47.60
2017-12-19T00:53:40.712Z,47.50
2017-12-19T00:56:08.617Z,47.30
2017-12-19T00:58:36.451Z,47.30
2017-12-19T01:01:04.316Z,47.30
2017-12-19T01:03:32.145Z,47.50
2017-12-19T01:06:00.041Z,47.70
2017-12-19T01:08:27.868Z,47.90
2017-12-19T01:10:55.765Z,47.90
2017-12-19T01:13:23.598Z,47.70
2017-12-19T01:15:51.464Z,46.90
2017-12-19T01:18:19.275Z,46.50
2017-12-19T01:20:47.184Z,46.40
2017-12-19T01:23:15.034Z,45.70
2017-12-19T01:25:43.640Z,46.60
2017-12-19T01:28:11.452Z,46.50
2017-12-19T01:30:39.274Z,46.40
2017-12-19T01:33:07.202Z,46.50
2017-12-19T01:35:35.861Z,46.70
2017-12-19T01:38:03.778Z,46.60
2017-12-19T01:40:31.616Z,46.70
2017-12-19T01:42:59.480Z,46.80
2017-12-19T01:45:27.294Z,46.90
2017-12-19T01:47:55.179Z,47.00
2017-12-19T01:50:23.038Z,47.00
2017-12-19T01:52:50.857Z,47.10
2017-12-19T01:55:19.404Z,47.50
2017-12-19T01:57:47.220Z,47.50
2017-12-19T02:00:15.017Z,47.40
2017-12-19T02:02:42.823Z,47.60
2017-12-19T02:05:10.623Z,48.20
2017-12-19T02:07:38.504Z,48.80
2017-12-19T02:10:06.283Z,48.20
2017-12-19T02:12:34.159Z,48.00
2017-12-19T02:15:02.066Z,48.00
2017-12-19T02:17:30.701Z,48.30
2017-12-19T02:19:58.596Z,48.30
2017-12-19T02:22:26.519Z,48.30
2017-12-19T02:24:54.477Z,48.60
2017-12-19T02:27:22.444Z,49.30
2017-12-19T02:29:50.384Z,50.10
2017-12-19T02:32:19.052Z,50.80
2017-12-19T02:34:46.955Z,50.70
2017-12-19T02:37:14.854Z,51.10
2017-12-19T02:39:42.816Z,51.40
2017-12-19T02:42:10.906Z,51.20
2017-12-19T02:44:38.807Z,51.00
2017-12-19T02:47:07.560Z,51.60
2017-12-19T02:49:35.446Z,51.60
2017-12-19T02:52:03.396Z,51.30
2017-12-19T02:54:31.339Z,50.90
2017-12-19T02:56:59.216Z,50.80
2017-12-19T02:59:27.151Z,49.80
2017-12-19T03:01:55.062Z,49.50
2017-12-19T03:04:22.952Z,49.30
2017-12-19T03:06:50.840Z,49.20
2017-12-19T03:09:19.473Z,48.30
2017-12-19T03:11:47.361Z,48.30
2017-12-19T03:14:15.357Z,48.00
2017-12-19T03:16:44.050Z,47.70
2017-12-19T03:19:11.958Z,47.70
2017-12-19T03:21:39.919Z,48.00
2017-12-19T03:24:07.801Z,48.10
2017-12-19T03:26:35.685Z,47.90
2017-12-19T03:29:04.337Z,47.70
2017-12-19T03:31:32.224Z,47.80
2017-12-19T03:34:00.175Z,47.90
2017-12-19T03:36:28.139Z,47.70
2017-12-19T03:38:56.092Z,47.70
2017-12-19T03:41:23.952Z,48.00
2017-12-19T03:43:51.852Z,48.10
2017-12-19T03:46:19.765Z,48.10
2017-12-19T03:48:47.748Z,48.00
2017-12-19T03:51:15.752Z,47.90
2017-12-19T03:53:43.661Z,47.80
2017-12-19T03:56:11.688Z,47.50
2017-12-19T03:58:39.619Z,47.50
2017-12-19T04:01:08.411Z,47.10
2017-12-19T04:03:36.383Z,47.10
2017-12-19T04:06:04.301Z,46.80
2017-12-19T04:08:32.204Z,46.90
2017-12-19T04:11:00.984Z,47.20
2017-12-19T04:13:29.617Z,47.30
2017-12-19T04:15:57.570Z,47.30
2017-12-19T04:18:25.583Z,47.50
2017-12-19T04:20:54.248Z,47.80
2017-12-19T04:23:22.147Z,47.70
2017-12-19T04:25:50.051Z,48.00
2017-12-19T04:28:17.992Z,48.10
2017-12-19T04:30:46.664Z,48.00
2017-12-19T04:33:14.628Z,48.00
2017-12-19T04:35:42.601Z,48.10
2017-12-19T04:38:10.491Z,48.10
2017-12-19T04:40:39.104Z,48.00
2017-12-19T04:43:06.993Z,48.00
2017-12-19T04:45:34.967Z,48.10
2017-12-19T04:48:02.911Z,48.10
2017-12-19T04:50:30.892Z,48.20
2017-12-19T04:52:58.836Z,48.20
2017-12-19T04:55:26.805Z,48.20
2017-12-19T04:57:54.728Z,48.10
2017-12-19T05:00:23.480Z,48.20
2017-12-19T05:02:51.431Z,48.00
2017-12-19T05:05:19.291Z,47.90
2017-12-19T05:07:47.268Z,47.70
2017-12-19T05:10:15.122Z,47.90
2017-12-19T05:12:43.075Z,47.90
2017-12-19T05:15:11.740Z,47.90
2017-12-19T05:17:39.687Z,47.90
2017-12-19T05:20:07.565Z,47.80
2017-12-19T05:22:35.436Z,48.00
2017-12-19T05:25:03.304Z,48.60
2017-12-19T05:27:31.245Z,48.40
2017-12-19T05:29:59.133Z,48.80
2017-12-19T05:32:27.038Z,48.70
2017-12-19T05:34:55.758Z,48.40
2017-12-19T05:37:23.656Z,48.40
2017-12-19T05:39:51.592Z,48.40
2017-12-19T05:42:19.534Z,48.20
2017-12-19T05:44:47.527Z,48.10
2017-12-19T05:47:16.182Z,47.60
2017-12-19T05:49:44.082Z,46.90
2017-12-19T05:52:12.035Z,43.80
2017-12-19T05:54:39.961Z,41.90
2017-12-19T05:57:08.692Z,39.90
2017-12-19T05:59:36.565Z,39.90
2017-12-19T06:02:04.474Z,39.60
2017-12-19T06:04:32.360Z,39.40
2017-12-19T06:07:01.068Z,39.10
2017-12-19T06:09:28.966Z,39.00
2017-12-19T06:11:56.858Z,37.50
2017-12-19T06:14:24.821Z,37.20
2017-12-19T06:16:52.817Z,37.30
2017-12-19T06:19:21.474Z,37.70
2017-12-19T06:21:49.361Z,37.70
2017-12-19T06:24:18.135Z,38.00
2017-12-19T06:26:46.114Z,38.00
2017-12-19T06:29:14.824Z,38.00
2017-12-19T06:31:43.501Z,37.90
2017-12-19T06:34:12.156Z,38.30
2017-12-19T06:36:40.038Z,38.30
2017-12-19T06:39:07.970Z,38.50
2017-12-19T06:41:35.967Z,39.70
2017-12-19T06:44:04.683Z,39.70
2017-12-19T06:46:32.631Z,39.70
2017-12-19T06:49:01.315Z,40.20
2017-12-19T06:51:29.982Z,40.20
2017-12-19T06:53:57.888Z,40.20
2017-12-19T06:56:25.863Z,40.20
2017-12-19T06:58:53.728Z,40.40
2017-12-19T07:01:21.780Z,40.70
2017-12-19T07:03:50.345Z,41.80
2017-12-19T07:06:18.218Z,41.80
2017-12-19T07:08:46.150Z,41.30
2017-12-19T07:11:15.127Z,41.80
2017-12-19T07:13:44.080Z,41.40
2017-12-19T07:16:12.040Z,41.70
2017-12-19T07:18:40.646Z,42.00
2017-12-19T07:21:09.302Z,40.80
2017-12-19T07:23:37.999Z,40.80
2017-12-19T07:26:06.712Z,40.50
2017-12-19T07:28:34.692Z,40.50
2017-12-19T07:31:02.569Z,40.20
2017-12-19T07:33:30.457Z,40.30
2017-12-19T07:35:58.362Z,40.40
2017-12-19T07:38:27.068Z,40.90
2017-12-19T07:40:54.953Z,40.90
2017-12-19T07:43:22.814Z,40.90
2017-12-19T07:45:50.689Z,40.90
2017-12-19T07:48:18.595Z,41.30
2017-12-19T07:50:46.409Z,41.30
2017-12-19T07:53:14.343Z,41.30
2017-12-19T07:55:42.936Z,41.40
2017-12-19T07:58:10.825Z,41.40
2017-12-19T08:00:39.448Z,41.50
2017-12-19T08:03:08.158Z,41.10
2017-12-19T08:05:36.815Z,40.30
2017-12-19T08:08:04.640Z,40.40
2017-12-19T08:10:32.446Z,40.20
2017-12-19T08:13:00.265Z,40.40
2017-12-19T08:15:28.124Z,40.40
2017-12-19T08:17:55.973Z,40.40
2017-12-19T08:20:24.637Z,40.60
2017-12-19T08:22:52.499Z,40.60
2017-12-19T08:25:20.374Z,40.60
2017-12-19T08:27:48.192Z,40.30
2017-12-19T08:30:16.779Z,40.20
2017-12-19T08:32:44.641Z,39.60
2017-12-19T08:35:12.488Z,40.10
2017-12-19T08:37:40.351Z,40.60
2017-12-19T08:40:08.941Z,40.60
2017-12-19T08:42:36.789Z,40.60
2017-12-19T08:45:05.454Z,40.50
2017-12-19T08:47:33.315Z,40.40
2017-12-19T08:50:01.204Z,40.10
2017-12-19T08:52:29.801Z,40.40
2017-12-19T08:54:57.583Z,40.40
2017-12-19T08:57:25.488Z,40.50
2017-12-19T08:59:53.294Z,40.00
2017-12-19T09:02:21.886Z,39.60
2017-12-19T09:04:49.731Z,39.60
2017-12-19T09:07:18.284Z,39.80
2017-12-19T09:09:46.092Z,39.70
2017-12-19T09:12:13.880Z,39.50
2017-12-19T09:14:41.768Z,39.20
2017-12-19T09:17:09.643Z,39.40
2017-12-19T09:19:37.540Z,39.60
2017-12-19T09:22:06.149Z,39.80
2017-12-19T09:24:34.011Z,39.80
2017-12-19T09:27:01.823Z,40.10
2017-12-19T09:29:29.669Z,39.80
2017-12-19T09:31:57.498Z,39.70
2017-12-19T09:34:25.368Z,40.00
2017-12-19T09:36:53.161Z,40.20
2017-12-19T09:39:20.988Z,40.30
2017-12-19T09:41:49.571Z,40.50
2017-12-19T09:44:18.144Z,40.70
2017-12-19T09:46:46.015Z,40.70
2017-12-19T09:49:14.557Z,40.10
2017-12-19T09:51:42.448Z,40.00
2017-12-19T09:54:10.329Z,40.30
2017-12-19T09:56:38.968Z,40.00
2017-12-19T09:59:06.911Z,40.00
2017-12-19T10:01:34.713Z,40.00
2017-12-19T10:04:02.596Z,39.90
2017-12-19T10:06:30.419Z,40.00
2017-12-19T10:08:58.272Z,39.90
2017-12-19T10:11:26.062Z,39.70
2017-12-19T10:13:53.896Z,39.80
2017-12-19T10:16:21.773Z,39.30
2017-12-19T10:18:49.783Z,38.90
2017-12-19T10:21:17.766Z,39.30
2017-12-19T10:23:45.728Z,39.20
2017-12-19T10:26:13.602Z,39.30
2017-12-19T10:28:41.478Z,38.80
2017-12-19T10:31:10.136Z,38.90
2017-12-19T10:33:37.988Z,38.90
2017-12-19T10:36:05.926Z,38.20
2017-12-19T10:38:33.785Z,38.50
2017-12-19T10:41:01.675Z,38.20
2017-12-19T10:43:29.630Z,38.30
2017-12-19T10:45:57.494Z,38.20
2017-12-19T10:48:25.395Z,37.90
2017-12-19T10:50:53.269Z,38.00
2017-12-19T10:53:21.056Z,37.90
2017-12-19T10:55:48.836Z,37.70
2017-12-19T10:58:17.406Z,36.80
2017-12-19T11:00:45.993Z,36.70
2017-12-19T11:03:14.552Z,36.40
2017-12-19T11:05:42.368Z,36.40
2017-12-19T11:08:10.152Z,36.50
2017-12-19T11:10:37.977Z,36.90
2017-12-19T11:13:06.565Z,36.70
2017-12-19T11:15:35.209Z,36.50
2017-12-19T11:18:03.073Z,36.50
2017-12-19T11:20:30.897Z,36.60
2017-12-19T11:22:58.848Z,36.80
2017-12-19T11:25:27.558Z,36.50
2017-12-19T11:27:55.487Z,36.50
2017-12-19T11:30:24.193Z,36.10
2017-12-19T11:32:52.915Z,36.20
2017-12-19T11:35:20.830Z,36.20
2017-12-19T11:37:49.498Z,36.40
2017-12-19T11:40:17.456Z,36.40
2017-12-19T11:42:45.322Z,36.30
2017-12-19T11:45:13.169Z,36.20
2017-12-19T11:47:41.028Z,36.00
2017-12-19T11:50:08.825Z,35.90
2017-12-19T11:52:36.631Z,36.20
2017-12-19T11:55:05.252Z,36.10
2017-12-19T11:57:33.091Z,36.10
2017-12-19T12:00:00.894Z,36.30
2017-12-19T12:02:28.795Z,36.50
2017-12-19T12:04:57.378Z,37.10
2017-12-19T12:07:26.010Z,37.30
2017-12-19T12:09:53.966Z,37.30
2017-12-19T12:12:21.810Z,37.60
2017-12-19T12:14:50.408Z,37.60
2017-12-19T12:17:18.312Z,37.60
2017-12-19T12:19:46.185Z,37.40
2017-12-19T12:22:14.047Z,37.00
2017-12-19T12:24:41.869Z,37.20
2017-12-19T12:27:09.725Z,37.60
2017-12-19T12:29:38.321Z,38.00
2017-12-19T12:32:06.163Z,38.00
2017-12-19T12:34:34.757Z,38.30
2017-12-19T12:37:02.651Z,38.30
2017-12-19T12:39:30.520Z,38.50
2017-12-19T12:41:58.320Z,38.40
2017-12-19T12:44:26.165Z,38.60
2017-12-19T12:46:54.807Z,39.10
2017-12-19T12:49:24.408Z,39.30
2017-12-19T12:51:52.989Z,39.30
2017-12-19T12:54:21.576Z,39.60
2017-12-19T12:56:50.130Z,39.40
2017-12-19T12:59:17.988Z,39.40
2017-12-19T13:01:45.864Z,39.60
2017-12-19T13:04:13.718Z,39.80
2017-12-19T13:06:41.708Z,39.50
2017-12-19T13:09:10.399Z,39.20
2017-12-19T13:11:39.109Z,39.00
2017-12-19T13:14:07.036Z,39.00
2017-12-19T13:16:34.954Z,38.50
2017-12-19T13:19:02.751Z,38.40
2017-12-19T13:21:30.610Z,38.10
2017-12-19T13:23:58.403Z,38.00
2017-12-19T13:26:26.235Z,38.00
2017-12-19T13:28:54.037Z,37.00
2017-12-19T13:31:21.872Z,36.80
2017-12-19T13:33:49.729Z,37.70
2017-12-19T13:36:17.687Z,36.70
2017-12-19T13:38:45.485Z,36.90
2017-12-19T13:41:13.259Z,37.10
2017-12-19T13:43:41.082Z,36.90
2017-12-19T13:46:08.954Z,36.80
2017-12-19T13:48:36.773Z,36.60
2017-12-19T13:51:05.378Z,35.50
2017-12-19T13:53:33.182Z,35.60
2017-12-19T13:56:01.041Z,35.60
2017-12-19T13:58:28.920Z,35.60
2017-12-19T14:00:56.737Z,36.00
2017-12-19T14:03:24.521Z,35.60
2017-12-19T14:05:52.547Z,35.60
2017-12-19T14:08:21.130Z,36.20
2017-12-19T14:10:49.739Z,36.40
2017-12-19T14:13:17.575Z,36.40
2017-12-19T14:15:46.231Z,35.30
2017-12-19T14:18:14.013Z,35.30
2017-12-19T14:20:41.836Z,35.60
2017-12-19T14:23:09.696Z,35.90
2017-12-19T14:25:37.584Z,35.30
2017-12-19T14:28:05.501Z,34.90
2017-12-19T14:30:34.071Z,35.10
2017-12-19T14:33:02.724Z,35.20
2017-12-19T14:35:31.367Z,35.00
2017-12-19T14:37:59.160Z,35.00
2017-12-19T14:40:26.948Z,34.30
2017-12-19T14:42:54.780Z,34.10
2017-12-19T14:45:22.612Z,34.10
2017-12-19T14:47:51.233Z,33.60
2017-12-19T14:50:19.119Z,33.70
2017-12-19T14:52:47.054Z,34.10
2017-12-19T14:55:15.047Z,34.30
2017-12-19T14:57:42.908Z,34.50
2017-12-19T15:00:10.724Z,34.60
2017-12-19T15:02:39.264Z,34.80
2017-12-19T15:05:07.103Z,34.80
2017-12-19T15:07:34.997Z,33.90
2017-12-19T15:10:02.860Z,33.20
2017-12-19T15:12:30.720Z,33.10
2017-12-19T15:15:04.144Z,33.00
2017-12-19T15:17:32.031Z,32.50
2017-12-19T15:20:00.679Z,31.80
2017-12-19T15:22:28.520Z,31.80
2017-12-19T15:24:56.456Z,32.00
2017-12-19T15:27:25.074Z,31.30
2017-12-19T15:29:52.960Z,31.30
2017-12-19T15:32:20.865Z,31.50
2017-12-19T15:34:50.161Z,31.10
2017-12-19T15:37:18.029Z,31.10
2017-12-19T15:39:45.891Z,31.70
2017-12-19T15:42:14.465Z,31.50
2017-12-19T15:44:42.265Z,31.50
2017-12-19T15:47:10.143Z,31.60
2017-12-19T15:49:38.048Z,31.80
2017-12-19T15:52:05.908Z,32.00
2017-12-19T15:54:33.797Z,32.30
2017-12-19T15:57:01.647Z,32.20
2017-12-19T15:59:29.444Z,32.20
2017-12-19T16:01:58.014Z,33.60
2017-12-19T16:04:25.813Z,32.90
2017-12-19T16:06:53.692Z,32.70
2017-12-19T16:09:21.473Z,32.50
2017-12-19T16:11:49.333Z,32.70
2017-12-19T16:14:17.128Z,32.70
2017-12-19T16:16:44.981Z,32.60
2017-12-19T16:19:12.826Z,31.70
2017-12-19T16:21:40.748Z,31.80
2017-12-19T16:24:08.623Z,32.00
2017-12-19T16:26:37.201Z,32.40
2017-12-19T16:29:05.770Z,32.40
2017-12-19T16:31:33.664Z,32.40
2017-12-19T16:34:02.338Z,32.00
2017-12-19T16:36:30.919Z,32.20
2017-12-19T16:38:59.541Z,32.50
2017-12-19T16:41:27.347Z,31.80
2017-12-19T16:43:55.224Z,32.20
2017-12-19T16:46:23.012Z,32.80
2017-12-19T16:48:51.643Z,32.40
2017-12-19T16:51:19.479Z,32.40
2017-12-19T16:53:47.293Z,32.60
2017-12-19T16:56:15.160Z,32.50
2017-12-19T16:58:42.955Z,32.40
2017-12-19T17:01:11.513Z,31.80
2017-12-19T17:03:39.300Z,31.80
2017-12-19T17:06:07.880Z,32.10
2017-12-19T17:08:36.438Z,31.70
2017-12-19T17:11:04.340Z,31.70
2017-12-19T17:13:32.899Z,33.00
2017-12-19T17:16:00.713Z,33.00
2017-12-19T17:18:28.531Z,32.20
2017-12-19T17:20:56.388Z,32.00
2017-12-19T17:23:24.211Z,32.10
2017-12-19T17:25:52.026Z,32.30
2017-12-19T17:28:19.820Z,32.40
2017-12-19T17:30:47.650Z,33.00
2017-12-19T17:33:15.541Z,32.50
2017-12-19T17:35:43.376Z,32.40
2017-12-19T17:38:11.273Z,32.60
2017-12-19T17:40:39.089Z,32.70
2017-12-19T17:43:06.972Z,32.80
2017-12-19T17:45:34.791Z,32.70
2017-12-19T17:48:02.659Z,32.90
2017-12-19T17:50:30.481Z,33.00
2017-12-19T17:52:58.333Z,33.10
2017-12-19T17:55:26.145Z,33.00
2017-12-19T17:57:53.951Z,33.00
2017-12-19T18:00:21.844Z,33.50
2017-12-19T18:02:50.429Z,33.30
2017-12-19T18:05:18.291Z,33.30
2017-12-19T18:07:46.915Z,33.20
2017-12-19T18:10:14.747Z,33.20
2017-12-19T18:12:43.416Z,33.40
2017-12-19T18:15:11.387Z,33.30
2017-12-19T18:17:39.269Z,33.50
2017-12-19T18:20:07.874Z,33.40
2017-12-19T18:22:35.748Z,33.40
2017-12-19T18:25:03.640Z,33.60
2017-12-19T18:27:31.504Z,33.70
2017-12-19T18:29:59.361Z,33.70
2017-12-19T18:32:27.224Z,33.80
2017-12-19T18:34:55.141Z,33.70
2017-12-19T18:37:23.040Z,33.80
2017-12-19T18:39:50.863Z,33.20
2017-12-19T18:42:18.755Z,33.60
2017-12-19T18:44:48.161Z,32.80
2017-12-19T18:47:16.819Z,32.60
2017-12-19T18:49:44.700Z,32.60
2017-12-19T18:52:12.588Z,32.90
2017-12-19T18:54:40.407Z,33.30
2017-12-19T18:57:08.292Z,34.70
2017-12-19T18:59:36.116Z,34.00
2017-12-19T19:02:03.917Z,33.10
2017-12-19T19:04:31.692Z,32.70
2017-12-19T19:07:01.060Z,33.90
2017-12-19T19:09:28.894Z,33.90
2017-12-19T19:11:56.733Z,32.60
2017-12-19T19:14:25.304Z,32.70
2017-12-19T19:16:53.149Z,32.70
2017-12-19T19:19:20.957Z,32.70
2017-12-19T19:21:49.504Z,32.80
2017-12-19T19:24:17.343Z,32.90
2017-12-19T19:26:45.192Z,32.90
2017-12-19T19:29:13.004Z,32.80
2017-12-19T19:31:40.832Z,33.60
2017-12-19T19:34:08.634Z,33.10
2017-12-19T19:36:37.658Z,33.00
2017-12-19T19:39:06.189Z,33.30
2017-12-19T19:41:34.114Z,32.90
2017-12-19T19:44:01.908Z,32.90
2017-12-19T19:46:29.736Z,33.50
2017-12-19T19:48:57.559Z,34.40
2017-12-19T19:51:26.200Z,33.80
2017-12-19T19:53:53.980Z,33.90
2017-12-19T19:56:21.821Z,33.40
2017-12-19T19:58:49.655Z,33.50
2017-12-19T20:01:17.444Z,33.50
2017-12-19T20:03:46.039Z,33.90
2017-12-19T20:06:13.872Z,33.80
2017-12-19T20:08:42.485Z,33.70
2017-12-19T20:11:11.034Z,33.80
2017-12-19T20:13:38.821Z,33.80
2017-12-19T20:16:07.480Z,33.90
2017-12-19T20:18:35.391Z,33.80
2017-12-19T20:21:05.675Z,34.00
2017-12-19T20:23:33.549Z,33.80
2017-12-19T20:26:01.360Z,33.90
2017-12-19T20:28:29.157Z,34.20
2017-12-19T20:30:57.816Z,34.00
2017-12-19T20:33:25.639Z,34.10
2017-12-19T20:35:54.191Z,34.50
2017-12-19T20:38:22.016Z,34.60
2017-12-19T20:40:49.817Z,34.20
2017-12-19T20:43:17.652Z,34.20
2017-12-19T20:45:45.470Z,35.70
2017-12-19T20:48:13.320Z,34.20
2017-12-19T20:50:41.170Z,34.80
2017-12-19T20:53:08.974Z,34.20
2017-12-19T20:55:37.534Z,34.10
2017-12-19T20:58:05.406Z,34.10
2017-12-19T21:00:33.246Z,34.80
2017-12-19T21:03:01.077Z,34.30
2017-12-19T21:05:28.915Z,33.90
2017-12-19T21:07:57.571Z,34.40
2017-12-19T21:10:25.360Z,34.40
2017-12-19T21:12:53.176Z,34.40
2017-12-19T21:15:20.980Z,34.40
2017-12-19T21:17:48.791Z,34.60
2017-12-19T21:20:17.882Z,34.20
2017-12-19T21:22:45.858Z,34.00
2017-12-19T21:25:13.660Z,34.20
2017-12-19T21:27:41.476Z,34.00
2017-12-19T21:30:09.329Z,34.20
2017-12-19T21:32:38.021Z,34.10
2017-12-19T21:35:06.595Z,33.70
2017-12-19T21:37:35.197Z,33.40
2017-12-19T21:40:03.021Z,33.40
2017-12-19T21:42:30.815Z,34.80
2017-12-19T21:44:59.384Z,34.20
2017-12-19T21:47:27.955Z,33.90
2017-12-19T21:49:55.793Z,33.90
2017-12-19T21:52:23.644Z,34.40
2017-12-19T21:54:51.521Z,33.50
2017-12-19T21:57:19.364Z,34.40
2017-12-19T21:59:47.194Z,34.10
2017-12-19T22:02:15.050Z,33.50
2017-12-19T22:04:42.865Z,33.40
2017-12-19T22:07:10.680Z,33.60
2017-12-19T22:09:38.478Z,33.10
2017-12-19T22:12:06.316Z,33.30
2017-12-19T22:14:34.100Z,33.00
2017-12-19T22:17:02.694Z,34.10
2017-12-19T22:19:30.524Z,34.70
2017-12-19T22:21:58.362Z,33.30
2017-12-19T22:24:26.172Z,33.30
2017-12-19T22:26:54.731Z,33.50
2017-12-19T22:29:22.568Z,33.50
2017-12-19T22:31:50.406Z,34.00
2017-12-19T22:34:18.240Z,33.10
2017-12-19T22:36:46.032Z,33.20
2017-12-19T22:39:13.889Z,32.90
2017-12-19T22:41:42.437Z,33.40
2017-12-19T22:44:10.243Z,33.40
2017-12-19T22:46:38.066Z,33.30
2017-12-19T22:49:07.449Z,34.50
2017-12-19T22:51:35.247Z,34.40
2017-12-19T22:54:03.051Z,33.60
2017-12-19T22:56:30.868Z,33.60
2017-12-19T22:58:58.688Z,34.00
2017-12-19T23:01:26.456Z,34.50
2017-12-19T23:03:54.302Z,33.80
2017-12-19T23:06:22.111Z,33.30
2017-12-19T23:08:49.941Z,33.20
2017-12-19T23:11:17.825Z,33.60
2017-12-19T23:13:45.614Z,34.00
2017-12-19T23:16:13.489Z,34.00
2017-12-19T23:18:41.296Z,33.30
2017-12-19T23:21:09.087Z,33.50
2017-12-19T23:23:36.892Z,33.90
2017-12-19T23:26:04.799Z,33.50
2017-12-19T23:28:32.586Z,34.50
2017-12-19T23:31:00.575Z,33.60
2017-12-19T23:33:28.358Z,34.60
2017-12-19T23:35:56.202Z,33.90
2017-12-19T23:38:24.110Z,34.80
2017-12-19T23:40:51.932Z,33.90
2017-12-19T23:43:20.522Z,33.70
2017-12-19T23:45:48.469Z,33.70
2017-12-19T23:48:16.302Z,33.80
2017-12-19T23:50:44.107Z,34.30
2017-12-19T23:53:11.894Z,34.30
2017-12-19T23:55:39.705Z,33.90
2017-12-19T23:58:07.525Z,33.90
